sensor_id;sensor_type;location;lat;lon;timestamp;P1;durP1;ratioP1;P2;durP2;ratioP2
21334;SDS011;10826;52.536;13.432;2022-07-23T00:00:56;5.50;;;4.97;;
21334;SDS011;10826;52.536;13.432;2022-07-23T00:03:22;5.37;;;4.87;;
21334;SDS011;10826;52.536;13.432;2022-07-23T00:05:48;5.10;;;4.70;;
21334;SDS011;10826;52.536;13.432;2022-07-23T00:08:14;6.07;;;5.27;;
21334;SDS011;10826;52.536;13.432;2022-07-23T00:10:40;6.20;;;4.60;;
21334;SDS011;10826;52.536;13.432;2022-07-23T00:13:06;5.30;;;4.80;;
21334;SDS011;10826;52.536;13.432;2022-07-23T00:15:32;5.40;;;5.00;;
21334;SDS011;10826;52.536;13.432;2022-07-23T00:17:58;8.30;;;5.13;;
21334;SDS011;10826;52.536;13.432;2022-07-23T00:20:24;4.93;;;4.50;;
21334;SDS011;10826;52.536;13.432;2022-07-23T00:22:51;5.73;;;5.13;;
21334;SDS011;10826;52.536;13.432;2022-07-23T00:25:20;6.37;;;5.10;;
21334;SDS011;10826;52.536;13.432;2022-07-23T00:27:48;11.00;;;5.50;;
21334;SDS011;10826;52.536;13.432;2022-07-23T00:30:14;4.83;;;4.43;;
21334;SDS011;10826;52.536;13.432;2022-07-23T00:32:51;5.43;;;4.93;;
21334;SDS011;10826;52.536;13.432;2022-07-23T00:35:23;5.13;;;4.63;;
21334;SDS011;10826;52.536;13.432;2022-07-23T00:37:51;6.07;;;5.07;;
21334;SDS011;10826;52.536;13.432;2022-07-23T00:40:17;6.40;;;5.80;;
21334;SDS011;10826;52.536;13.432;2022-07-23T00:42:44;6.70;;;5.03;;
21334;SDS011;10826;52.536;13.432;2022-07-23T00:45:10;6.10;;;5.20;;
21334;SDS011;10826;52.536;13.432;2022-07-23T00:47:36;5.70;;;5.27;;
21334;SDS011;10826;52.536;13.432;2022-07-23T00:50:03;5.70;;;5.20;;
21334;SDS011;10826;52.536;13.432;2022-07-23T00:52:31;5.40;;;4.90;;
21334;SDS011;10826;52.536;13.432;2022-07-23T00:54:58;5.67;;;5.10;;
21334;SDS011;10826;52.536;13.432;2022-07-23T00:57:24;7.93;;;5.30;;
21334;SDS011;10826;52.536;13.432;2022-07-23T00:59:51;5.93;;;5.43;;
21334;SDS011;10826;52.536;13.432;2022-07-23T01:02:17;5.80;;;4.97;;
21334;SDS011;10826;52.536;13.432;2022-07-23T01:04:43;6.23;;;5.63;;
21334;SDS011;10826;52.536;13.432;2022-07-23T01:07:10;6.03;;;4.67;;
21334;SDS011;10826;52.536;13.432;2022-07-23T01:09:36;5.43;;;4.80;;
21334;SDS011;10826;52.536;13.432;2022-07-23T01:12:03;5.90;;;5.37;;
21334;SDS011;10826;52.536;13.432;2022-07-23T01:14:30;6.27;;;5.63;;
21334;SDS011;10826;52.536;13.432;2022-07-23T01:16:57;6.67;;;5.23;;
21334;SDS011;10826;52.536;13.432;2022-07-23T01:19:23;6.23;;;5.73;;
21334;SDS011;10826;52.536;13.432;2022-07-23T01:21:50;7.00;;;5.13;;
21334;SDS011;10826;52.536;13.432;2022-07-23T01:24:17;6.97;;;5.20;;
21334;SDS011;10826;52.536;13.432;2022-07-23T01:26:47;5.73;;;5.13;;
21334;SDS011;10826;52.536;13.432;2022-07-23T01:29:14;6.33;;;5.40;;
21334;SDS011;10826;52.536;13.432;2022-07-23T01:31:41;5.63;;;5.13;;
21334;SDS011;10826;52.536;13.432;2022-07-23T01:34:08;5.77;;;5.13;;
21334;SDS011;10826;52.536;13.432;2022-07-23T01:36:35;7.13;;;5.90;;
21334;SDS011;10826;52.536;13.432;2022-07-23T01:39:03;8.97;;;5.47;;
21334;SDS011;10826;52.536;13.432;2022-07-23T01:41:31;5.67;;;5.17;;
21334;SDS011;10826;52.536;13.432;2022-07-23T01:43:57;5.70;;;5.20;;
21334;SDS011;10826;52.536;13.432;2022-07-23T01:46:23;6.23;;;4.97;;
21334;SDS011;10826;52.536;13.432;2022-07-23T01:48:49;6.10;;;5.50;;
21334;SDS011;10826;52.536;13.432;2022-07-23T01:51:16;5.70;;;5.17;;
21334;SDS011;10826;52.536;13.432;2022-07-23T01:53:41;6.80;;;5.23;;
21334;SDS011;10826;52.536;13.432;2022-07-23T01:56:08;8.60;;;5.67;;
21334;SDS011;10826;52.536;13.432;2022-07-23T01:58:35;5.60;;;5.20;;
21334;SDS011;10826;52.536;13.432;2022-07-23T02:01:01;8.30;;;5.47;;
21334;SDS011;10826;52.536;13.432;2022-07-23T02:03:27;7.00;;;5.37;;
21334;SDS011;10826;52.536;13.432;2022-07-23T02:05:54;5.33;;;4.83;;
21334;SDS011;10826;52.536;13.432;2022-07-23T02:08:20;5.67;;;5.10;;
21334;SDS011;10826;52.536;13.432;2022-07-23T02:10:46;7.47;;;5.63;;
21334;SDS011;10826;52.536;13.432;2022-07-23T02:13:17;5.93;;;5.27;;
21334;SDS011;10826;52.536;13.432;2022-07-23T02:15:44;6.23;;;5.20;;
21334;SDS011;10826;52.536;13.432;2022-07-23T02:18:12;5.57;;;5.00;;
21334;SDS011;10826;52.536;13.432;2022-07-23T02:20:39;7.13;;;5.53;;
21334;SDS011;10826;52.536;13.432;2022-07-23T02:23:06;5.40;;;4.90;;
21334;SDS011;10826;52.536;13.432;2022-07-23T02:25:33;8.27;;;5.33;;
21334;SDS011;10826;52.536;13.432;2022-07-23T02:27:59;6.40;;;5.60;;
21334;SDS011;10826;52.536;13.432;2022-07-23T02:30:26;5.93;;;5.00;;
21334;SDS011;10826;52.536;13.432;2022-07-23T02:32:52;5.10;;;4.50;;
21334;SDS011;10826;52.536;13.432;2022-07-23T02:35:18;5.93;;;5.10;;
21334;SDS011;10826;52.536;13.432;2022-07-23T02:37:44;4.90;;;4.40;;
21334;SDS011;10826;52.536;13.432;2022-07-23T02:40:10;6.67;;;5.10;;
21334;SDS011;10826;52.536;13.432;2022-07-23T02:42:37;8.83;;;5.00;;
21334;SDS011;10826;52.536;13.432;2022-07-23T02:45:04;5.10;;;4.60;;
21334;SDS011;10826;52.536;13.432;2022-07-23T02:47:31;5.33;;;4.93;;
21334;SDS011;10826;52.536;13.432;2022-07-23T02:49:57;5.50;;;5.00;;
21334;SDS011;10826;52.536;13.432;2022-07-23T02:52:23;5.43;;;4.93;;
21334;SDS011;10826;52.536;13.432;2022-07-23T02:54:49;8.83;;;5.07;;
21334;SDS011;10826;52.536;13.432;2022-07-23T02:57:15;5.50;;;5.00;;
21334;SDS011;10826;52.536;13.432;2022-07-23T02:59:41;8.53;;;4.83;;
21334;SDS011;10826;52.536;13.432;2022-07-23T03:02:08;6.40;;;5.33;;
21334;SDS011;10826;52.536;13.432;2022-07-23T03:04:34;6.30;;;5.40;;
21334;SDS011;10826;52.536;13.432;2022-07-23T03:07:00;5.97;;;5.17;;
21334;SDS011;10826;52.536;13.432;2022-07-23T03:09:26;11.63;;;5.50;;
21334;SDS011;10826;52.536;13.432;2022-07-23T03:11:51;5.27;;;4.77;;
21334;SDS011;10826;52.536;13.432;2022-07-23T03:14:17;6.67;;;4.90;;
21334;SDS011;10826;52.536;13.432;2022-07-23T03:16:43;5.97;;;5.47;;
21334;SDS011;10826;52.536;13.432;2022-07-23T03:19:10;5.53;;;4.77;;
21334;SDS011;10826;52.536;13.432;2022-07-23T03:21:36;9.87;;;5.27;;
21334;SDS011;10826;52.536;13.432;2022-07-23T03:24:06;5.37;;;4.87;;
21334;SDS011;10826;52.536;13.432;2022-07-23T03:26:35;10.77;;;5.20;;
21334;SDS011;10826;52.536;13.432;2022-07-23T03:29:02;5.00;;;4.60;;
21334;SDS011;10826;52.536;13.432;2022-07-23T03:31:29;5.67;;;4.53;;
21334;SDS011;10826;52.536;13.432;2022-07-23T03:33:56;7.13;;;4.43;;
21334;SDS011;10826;52.536;13.432;2022-07-23T03:36:23;9.67;;;4.83;;
21334;SDS011;10826;52.536;13.432;2022-07-23T03:38:49;6.87;;;4.73;;
21334;SDS011;10826;52.536;13.432;2022-07-23T03:41:16;5.23;;;4.23;;
21334;SDS011;10826;52.536;13.432;2022-07-23T03:43:43;4.87;;;4.37;;
21334;SDS011;10826;52.536;13.432;2022-07-23T03:46:09;4.93;;;4.10;;
21334;SDS011;10826;52.536;13.432;2022-07-23T03:48:35;6.50;;;4.50;;
21334;SDS011;10826;52.536;13.432;2022-07-23T03:51:01;6.73;;;4.50;;
21334;SDS011;10826;52.536;13.432;2022-07-23T03:53:27;7.20;;;4.13;;
21334;SDS011;10826;52.536;13.432;2022-07-23T03:55:54;4.60;;;4.20;;
21334;SDS011;10826;52.536;13.432;2022-07-23T03:58:20;4.90;;;4.23;;
21334;SDS011;10826;52.536;13.432;2022-07-23T04:00:46;11.53;;;3.80;;
21334;SDS011;10826;52.536;13.432;2022-07-23T04:03:12;3.80;;;3.50;;
21334;SDS011;10826;52.536;13.432;2022-07-23T04:05:38;4.37;;;3.40;;
21334;SDS011;10826;52.536;13.432;2022-07-23T04:08:04;5.90;;;3.60;;
21334;SDS011;10826;52.536;13.432;2022-07-23T04:10:30;4.33;;;3.50;;
21334;SDS011;10826;52.536;13.432;2022-07-23T04:12:56;5.77;;;3.60;;
21334;SDS011;10826;52.536;13.432;2022-07-23T04:15:21;4.40;;;3.67;;
21334;SDS011;10826;52.536;13.432;2022-07-23T04:17:47;3.60;;;3.30;;
21334;SDS011;10826;52.536;13.432;2022-07-23T04:20:13;3.37;;;3.07;;
21334;SDS011;10826;52.536;13.432;2022-07-23T04:22:39;3.53;;;3.17;;
21334;SDS011;10826;52.536;13.432;2022-07-23T04:25:05;4.73;;;2.80;;
21334;SDS011;10826;52.536;13.432;2022-07-23T04:27:32;5.70;;;3.47;;
21334;SDS011;10826;52.536;13.432;2022-07-23T04:29:58;3.50;;;2.40;;
21334;SDS011;10826;52.536;13.432;2022-07-23T04:32:25;5.20;;;3.00;;
21334;SDS011;10826;52.536;13.432;2022-07-23T04:34:50;5.63;;;3.10;;
21334;SDS011;10826;52.536;13.432;2022-07-23T04:37:16;3.40;;;2.90;;
21334;SDS011;10826;52.536;13.432;2022-07-23T04:39:42;3.67;;;2.93;;
21334;SDS011;10826;52.536;13.432;2022-07-23T04:42:09;10.53;;;3.50;;
21334;SDS011;10826;52.536;13.432;2022-07-23T04:44:35;5.27;;;3.27;;
21334;SDS011;10826;52.536;13.432;2022-07-23T04:47:01;7.43;;;4.00;;
21334;SDS011;10826;52.536;13.432;2022-07-23T04:49:27;4.57;;;2.70;;
21334;SDS011;10826;52.536;13.432;2022-07-23T04:51:53;8.00;;;3.40;;
21334;SDS011;10826;52.536;13.432;2022-07-23T04:54:20;4.73;;;3.23;;
21334;SDS011;10826;52.536;13.432;2022-07-23T04:56:46;7.97;;;3.57;;
21334;SDS011;10826;52.536;13.432;2022-07-23T04:59:12;3.30;;;3.00;;
21334;SDS011;10826;52.536;13.432;2022-07-23T05:01:37;3.90;;;2.90;;
21334;SDS011;10826;52.536;13.432;2022-07-23T05:04:03;5.53;;;3.50;;
21334;SDS011;10826;52.536;13.432;2022-07-23T05:06:29;5.77;;;3.37;;
21334;SDS011;10826;52.536;13.432;2022-07-23T05:08:55;6.40;;;3.50;;
21334;SDS011;10826;52.536;13.432;2022-07-23T05:11:21;8.40;;;3.57;;
21334;SDS011;10826;52.536;13.432;2022-07-23T05:13:47;4.33;;;3.17;;
21334;SDS011;10826;52.536;13.432;2022-07-23T05:16:13;7.57;;;2.90;;
21334;SDS011;10826;52.536;13.432;2022-07-23T05:18:39;6.13;;;3.57;;
21334;SDS011;10826;52.536;13.432;2022-07-23T05:21:05;7.87;;;3.30;;
21334;SDS011;10826;52.536;13.432;2022-07-23T05:23:30;4.63;;;3.10;;
21334;SDS011;10826;52.536;13.432;2022-07-23T05:25:56;5.27;;;2.90;;
21334;SDS011;10826;52.536;13.432;2022-07-23T05:28:22;3.00;;;2.60;;
21334;SDS011;10826;52.536;13.432;2022-07-23T05:30:48;4.67;;;3.13;;
21334;SDS011;10826;52.536;13.432;2022-07-23T05:33:14;4.97;;;3.23;;
21334;SDS011;10826;52.536;13.432;2022-07-23T05:35:40;7.80;;;3.40;;
21334;SDS011;10826;52.536;13.432;2022-07-23T05:38:06;4.90;;;3.03;;
21334;SDS011;10826;52.536;13.432;2022-07-23T05:40:32;4.13;;;3.07;;
21334;SDS011;10826;52.536;13.432;2022-07-23T05:42:58;4.60;;;2.97;;
21334;SDS011;10826;52.536;13.432;2022-07-23T05:45:24;3.87;;;3.20;;
21334;SDS011;10826;52.536;13.432;2022-07-23T05:47:50;5.67;;;2.97;;
21334;SDS011;10826;52.536;13.432;2022-07-23T05:50:16;7.40;;;3.30;;
21334;SDS011;10826;52.536;13.432;2022-07-23T05:52:42;7.70;;;3.43;;
21334;SDS011;10826;52.536;13.432;2022-07-23T05:55:10;4.80;;;3.10;;
21334;SDS011;10826;52.536;13.432;2022-07-23T05:57:37;6.30;;;3.33;;
21334;SDS011;10826;52.536;13.432;2022-07-23T06:00:04;6.17;;;3.20;;
21334;SDS011;10826;52.536;13.432;2022-07-23T06:02:32;6.80;;;3.30;;
21334;SDS011;10826;52.536;13.432;2022-07-23T06:04:58;4.37;;;3.17;;
21334;SDS011;10826;52.536;13.432;2022-07-23T06:07:24;6.93;;;3.70;;
21334;SDS011;10826;52.536;13.432;2022-07-23T06:09:50;3.17;;;2.87;;
21334;SDS011;10826;52.536;13.432;2022-07-23T06:12:16;4.67;;;3.40;;
21334;SDS011;10826;52.536;13.432;2022-07-23T06:14:43;8.03;;;3.23;;
21334;SDS011;10826;52.536;13.432;2022-07-23T06:17:09;5.83;;;3.07;;
21334;SDS011;10826;52.536;13.432;2022-07-23T06:19:35;7.20;;;3.53;;
21334;SDS011;10826;52.536;13.432;2022-07-23T06:22:01;6.17;;;4.37;;
21334;SDS011;10826;52.536;13.432;2022-07-23T06:24:27;7.37;;;3.57;;
21334;SDS011;10826;52.536;13.432;2022-07-23T06:26:53;7.47;;;4.23;;
21334;SDS011;10826;52.536;13.432;2022-07-23T06:29:19;7.43;;;3.53;;
21334;SDS011;10826;52.536;13.432;2022-07-23T06:31:45;6.43;;;3.90;;
21334;SDS011;10826;52.536;13.432;2022-07-23T06:34:11;6.90;;;4.00;;
21334;SDS011;10826;52.536;13.432;2022-07-23T06:36:37;5.63;;;3.70;;
21334;SDS011;10826;52.536;13.432;2022-07-23T06:39:03;4.93;;;3.47;;
21334;SDS011;10826;52.536;13.432;2022-07-23T06:41:29;7.63;;;3.77;;
21334;SDS011;10826;52.536;13.432;2022-07-23T06:43:55;5.97;;;3.50;;
21334;SDS011;10826;52.536;13.432;2022-07-23T06:46:21;5.67;;;3.80;;
21334;SDS011;10826;52.536;13.432;2022-07-23T06:48:47;6.10;;;4.10;;
21334;SDS011;10826;52.536;13.432;2022-07-23T06:51:13;8.37;;;3.70;;
21334;SDS011;10826;52.536;13.432;2022-07-23T06:53:39;4.67;;;3.87;;
21334;SDS011;10826;52.536;13.432;2022-07-23T06:56:06;7.87;;;4.10;;
21334;SDS011;10826;52.536;13.432;2022-07-23T06:58:32;3.83;;;3.53;;
21334;SDS011;10826;52.536;13.432;2022-07-23T07:00:58;4.67;;;3.87;;
21334;SDS011;10826;52.536;13.432;2022-07-23T07:03:24;5.67;;;3.90;;
21334;SDS011;10826;52.536;13.432;2022-07-23T07:05:50;6.97;;;4.73;;
21334;SDS011;10826;52.536;13.432;2022-07-23T07:08:17;8.07;;;4.20;;
21334;SDS011;10826;52.536;13.432;2022-07-23T07:10:43;5.10;;;3.93;;
21334;SDS011;10826;52.536;13.432;2022-07-23T07:13:09;7.23;;;4.00;;
21334;SDS011;10826;52.536;13.432;2022-07-23T07:15:35;4.27;;;3.63;;
21334;SDS011;10826;52.536;13.432;2022-07-23T07:18:00;4.97;;;4.67;;
21334;SDS011;10826;52.536;13.432;2022-07-23T07:20:26;6.20;;;4.57;;
21334;SDS011;10826;52.536;13.432;2022-07-23T07:22:52;6.80;;;3.97;;
21334;SDS011;10826;52.536;13.432;2022-07-23T07:25:18;5.67;;;3.90;;
21334;SDS011;10826;52.536;13.432;2022-07-23T07:27:44;6.27;;;4.57;;
21334;SDS011;10826;52.536;13.432;2022-07-23T07:30:10;8.53;;;4.50;;
21334;SDS011;10826;52.536;13.432;2022-07-23T07:32:37;5.90;;;4.23;;
21334;SDS011;10826;52.536;13.432;2022-07-23T07:35:04;6.83;;;4.60;;
21334;SDS011;10826;52.536;13.432;2022-07-23T07:37:31;3.47;;;3.23;;
21334;SDS011;10826;52.536;13.432;2022-07-23T07:39:58;4.40;;;4.00;;
21334;SDS011;10826;52.536;13.432;2022-07-23T07:42:24;7.33;;;4.30;;
21334;SDS011;10826;52.536;13.432;2022-07-23T07:44:52;6.17;;;4.43;;
21334;SDS011;10826;52.536;13.432;2022-07-23T07:47:18;7.70;;;4.10;;
21334;SDS011;10826;52.536;13.432;2022-07-23T07:49:48;4.60;;;4.20;;
21334;SDS011;10826;52.536;13.432;2022-07-23T07:52:15;7.20;;;4.83;;
21334;SDS011;10826;52.536;13.432;2022-07-23T07:54:41;8.97;;;4.70;;
21334;SDS011;10826;52.536;13.432;2022-07-23T07:57:08;5.53;;;3.70;;
21334;SDS011;10826;52.536;13.432;2022-07-23T07:59:34;6.23;;;4.10;;
21334;SDS011;10826;52.536;13.432;2022-07-23T08:02:04;8.07;;;4.27;;
21334;SDS011;10826;52.536;13.432;2022-07-23T08:04:34;4.87;;;3.73;;
21334;SDS011;10826;52.536;13.432;2022-07-23T08:07:03;4.93;;;3.60;;
21334;SDS011;10826;52.536;13.432;2022-07-23T08:09:29;4.70;;;3.30;;
21334;SDS011;10826;52.536;13.432;2022-07-23T08:11:56;4.37;;;3.20;;
21334;SDS011;10826;52.536;13.432;2022-07-23T08:14:22;4.40;;;3.40;;
21334;SDS011;10826;52.536;13.432;2022-07-23T08:16:48;5.47;;;3.43;;
21334;SDS011;10826;52.536;13.432;2022-07-23T08:19:14;4.63;;;3.87;;
21334;SDS011;10826;52.536;13.432;2022-07-23T08:21:41;5.23;;;4.00;;
21334;SDS011;10826;52.536;13.432;2022-07-23T08:24:08;6.33;;;4.13;;
21334;SDS011;10826;52.536;13.432;2022-07-23T08:26:38;4.03;;;3.50;;
21334;SDS011;10826;52.536;13.432;2022-07-23T08:29:04;5.13;;;3.90;;
21334;SDS011;10826;52.536;13.432;2022-07-23T08:31:30;4.93;;;3.47;;
21334;SDS011;10826;52.536;13.432;2022-07-23T08:34:00;8.53;;;3.93;;
21334;SDS011;10826;52.536;13.432;2022-07-23T08:36:27;6.53;;;3.57;;
21334;SDS011;10826;52.536;13.432;2022-07-23T08:38:58;4.60;;;3.70;;
21334;SDS011;10826;52.536;13.432;2022-07-23T08:41:25;4.73;;;4.07;;
21334;SDS011;10826;52.536;13.432;2022-07-23T08:43:51;6.77;;;3.50;;
21334;SDS011;10826;52.536;13.432;2022-07-23T08:46:18;4.10;;;2.97;;
21334;SDS011;10826;52.536;13.432;2022-07-23T08:48:47;5.30;;;3.33;;
21334;SDS011;10826;52.536;13.432;2022-07-23T08:51:15;3.23;;;2.93;;
21334;SDS011;10826;52.536;13.432;2022-07-23T08:53:42;3.80;;;3.10;;
21334;SDS011;10826;52.536;13.432;2022-07-23T08:56:09;4.40;;;3.20;;
21334;SDS011;10826;52.536;13.432;2022-07-23T08:58:35;5.27;;;2.83;;
21334;SDS011;10826;52.536;13.432;2022-07-23T09:01:02;6.10;;;2.80;;
21334;SDS011;10826;52.536;13.432;2022-07-23T09:03:29;4.87;;;3.20;;
21334;SDS011;10826;52.536;13.432;2022-07-23T09:05:58;4.83;;;3.10;;
21334;SDS011;10826;52.536;13.432;2022-07-23T09:08:37;2.93;;;2.60;;
21334;SDS011;10826;52.536;13.432;2022-07-23T09:11:08;5.77;;;3.10;;
21334;SDS011;10826;52.536;13.432;2022-07-23T09:14:09;4.47;;;3.00;;
21334;SDS011;10826;52.536;13.432;2022-07-23T09:16:30;5.60;;;2.97;;
21334;SDS011;10826;52.536;13.432;2022-07-23T09:18:58;3.40;;;2.80;;
21334;SDS011;10826;52.536;13.432;2022-07-23T09:21:37;5.00;;;2.90;;
21334;SDS011;10826;52.536;13.432;2022-07-23T09:24:08;6.23;;;3.57;;
21334;SDS011;10826;52.536;13.432;2022-07-23T09:26:44;3.33;;;3.03;;
21334;SDS011;10826;52.536;13.432;2022-07-23T09:29:23;6.73;;;3.70;;
21334;SDS011;10826;52.536;13.432;2022-07-23T09:31:52;4.73;;;3.10;;
21334;SDS011;10826;52.536;13.432;2022-07-23T09:37:09;5.20;;;3.37;;
21334;SDS011;10826;52.536;13.432;2022-07-23T09:39:38;5.00;;;3.30;;
21334;SDS011;10826;52.536;13.432;2022-07-23T09:42:13;5.67;;;3.83;;
21334;SDS011;10826;52.536;13.432;2022-07-23T09:44:45;12.83;;;4.50;;
21334;SDS011;10826;52.536;13.432;2022-07-23T09:47:14;5.13;;;3.97;;
21334;SDS011;10826;52.536;13.432;2022-07-23T09:50:04;6.63;;;3.77;;
21334;SDS011;10826;52.536;13.432;2022-07-23T09:52:48;5.33;;;3.83;;
21334;SDS011;10826;52.536;13.432;2022-07-23T09:55:16;4.20;;;3.90;;
21334;SDS011;10826;52.536;13.432;2022-07-23T09:57:44;4.53;;;3.93;;
21334;SDS011;10826;52.536;13.432;2022-07-23T10:00:15;6.17;;;3.80;;
21334;SDS011;10826;52.536;13.432;2022-07-23T10:02:41;6.77;;;4.37;;
21334;SDS011;10826;52.536;13.432;2022-07-23T10:05:13;4.87;;;3.57;;
21334;SDS011;10826;52.536;13.432;2022-07-23T10:07:40;3.43;;;3.13;;
21334;SDS011;10826;52.536;13.432;2022-07-23T10:10:08;4.73;;;3.47;;
21334;SDS011;10826;52.536;13.432;2022-07-23T10:12:36;3.63;;;3.17;;
21334;SDS011;10826;52.536;13.432;2022-07-23T10:15:22;3.77;;;3.20;;
21334;SDS011;10826;52.536;13.432;2022-07-23T10:17:48;6.10;;;3.50;;
21334;SDS011;10826;52.536;13.432;2022-07-23T10:20:15;8.23;;;3.27;;
21334;SDS011;10826;52.536;13.432;2022-07-23T10:22:55;4.57;;;3.23;;
21334;SDS011;10826;52.536;13.432;2022-07-23T10:25:44;3.67;;;3.30;;
21334;SDS011;10826;52.536;13.432;2022-07-23T10:28:30;4.10;;;3.70;;
21334;SDS011;10826;52.536;13.432;2022-07-23T10:37:05;5.17;;;3.13;;
21334;SDS011;10826;52.536;13.432;2022-07-23T10:39:42;3.43;;;2.97;;
21334;SDS011;10826;52.536;13.432;2022-07-23T10:42:12;4.73;;;2.83;;
21334;SDS011;10826;52.536;13.432;2022-07-23T10:44:42;5.03;;;3.00;;
21334;SDS011;10826;52.536;13.432;2022-07-23T10:47:21;6.93;;;2.63;;
21334;SDS011;10826;52.536;13.432;2022-07-23T10:50:19;5.00;;;3.20;;
21334;SDS011;10826;52.536;13.432;2022-07-23T10:53:07;6.77;;;2.90;;
21334;SDS011;10826;52.536;13.432;2022-07-23T10:55:44;7.10;;;2.90;;
21334;SDS011;10826;52.536;13.432;2022-07-23T10:58:17;7.23;;;3.07;;
21334;SDS011;10826;52.536;13.432;2022-07-23T11:00:46;3.10;;;2.90;;
21334;SDS011;10826;52.536;13.432;2022-07-23T11:03:31;4.03;;;3.07;;
21334;SDS011;10826;52.536;13.432;2022-07-23T11:06:04;3.17;;;2.80;;
21334;SDS011;10826;52.536;13.432;2022-07-23T11:08:31;3.70;;;2.53;;
21334;SDS011;10826;52.536;13.432;2022-07-23T11:32:18;3.28;;;3.00;;
21334;SDS011;10826;52.536;13.432;2022-07-23T11:34:50;3.00;;;2.80;;
21334;SDS011;10826;52.536;13.432;2022-07-23T11:40:14;5.15;;;3.28;;
21334;SDS011;10826;52.536;13.432;2022-07-23T11:42:54;5.70;;;3.22;;
21334;SDS011;10826;52.536;13.432;2022-07-23T11:45:30;4.82;;;3.25;;
21334;SDS011;10826;52.536;13.432;2022-07-23T11:48:06;3.53;;;2.50;;
21334;SDS011;10826;52.536;13.432;2022-07-23T11:50:54;2.90;;;2.65;;
21334;SDS011;10826;52.536;13.432;2022-07-23T11:53:23;3.75;;;2.92;;
21334;SDS011;10826;52.536;13.432;2022-07-23T11:56:07;3.92;;;2.72;;
21334;SDS011;10826;52.536;13.432;2022-07-23T11:58:36;4.65;;;3.22;;
21334;SDS011;10826;52.536;13.432;2022-07-23T12:01:04;3.53;;;3.08;;
21334;SDS011;10826;52.536;13.432;2022-07-23T12:03:30;6.22;;;2.90;;
21334;SDS011;10826;52.536;13.432;2022-07-23T12:05:57;3.75;;;3.15;;
21334;SDS011;10826;52.536;13.432;2022-07-23T12:08:25;3.92;;;3.35;;
21334;SDS011;10826;52.536;13.432;2022-07-23T12:10:52;4.82;;;2.80;;
21334;SDS011;10826;52.536;13.432;2022-07-23T12:13:19;3.47;;;2.83;;
21334;SDS011;10826;52.536;13.432;2022-07-23T12:15:49;3.08;;;2.80;;
21334;SDS011;10826;52.536;13.432;2022-07-23T12:18:22;4.97;;;2.90;;
21334;SDS011;10826;52.536;13.432;2022-07-23T12:20:52;5.82;;;3.17;;
21334;SDS011;10826;52.536;13.432;2022-07-23T12:23:24;8.38;;;3.90;;
21334;SDS011;10826;52.536;13.432;2022-07-23T12:25:51;4.28;;;3.20;;
21334;SDS011;10826;52.536;13.432;2022-07-23T12:28:20;3.75;;;3.10;;
21334;SDS011;10826;52.536;13.432;2022-07-23T12:30:54;5.68;;;3.80;;
21334;SDS011;10826;52.536;13.432;2022-07-23T12:36:04;3.50;;;3.20;;
21334;SDS011;10826;52.536;13.432;2022-07-23T12:38:41;4.38;;;3.15;;
21334;SDS011;10826;52.536;13.432;2022-07-23T12:41:12;6.55;;;3.00;;
21334;SDS011;10826;52.536;13.432;2022-07-23T12:43:39;3.63;;;3.33;;
21334;SDS011;10826;52.536;13.432;2022-07-23T12:46:18;4.85;;;3.30;;
21334;SDS011;10826;52.536;13.432;2022-07-23T12:51:18;7.13;;;3.53;;
21334;SDS011;10826;52.536;13.432;2022-07-23T12:53:52;5.10;;;3.38;;
21334;SDS011;10826;52.536;13.432;2022-07-23T12:56:27;4.43;;;3.40;;
21334;SDS011;10826;52.536;13.432;2022-07-23T12:58:58;5.13;;;3.20;;
21334;SDS011;10826;52.536;13.432;2022-07-23T13:01:33;4.03;;;2.85;;
21334;SDS011;10826;52.536;13.432;2022-07-23T13:04:11;3.80;;;3.50;;
21334;SDS011;10826;52.536;13.432;2022-07-23T13:06:42;3.38;;;3.08;;
21334;SDS011;10826;52.536;13.432;2022-07-23T13:09:13;4.25;;;3.05;;
21334;SDS011;10826;52.536;13.432;2022-07-23T13:11:42;3.15;;;2.80;;
21334;SDS011;10826;52.536;13.432;2022-07-23T13:14:10;7.20;;;4.03;;
21334;SDS011;10826;52.536;13.432;2022-07-23T13:16:38;3.97;;;3.33;;
21334;SDS011;10826;52.536;13.432;2022-07-23T13:19:05;4.97;;;3.22;;
21334;SDS011;10826;52.536;13.432;2022-07-23T13:21:32;4.05;;;3.03;;
21334;SDS011;10826;52.536;13.432;2022-07-23T13:23:58;3.47;;;3.15;;
21334;SDS011;10826;52.536;13.432;2022-07-23T13:26:25;3.88;;;3.40;;
21334;SDS011;10826;52.536;13.432;2022-07-23T13:28:54;6.18;;;3.80;;
21334;SDS011;10826;52.536;13.432;2022-07-23T13:31:20;3.58;;;2.83;;
21334;SDS011;10826;52.536;13.432;2022-07-23T13:33:47;5.40;;;3.55;;
21334;SDS011;10826;52.536;13.432;2022-07-23T13:36:13;14.18;;;3.25;;
21334;SDS011;10826;52.536;13.432;2022-07-23T13:38:39;4.47;;;2.78;;
21334;SDS011;10826;52.536;13.432;2022-07-23T13:41:06;4.13;;;2.95;;
21334;SDS011;10826;52.536;13.432;2022-07-23T13:43:32;4.15;;;3.00;;
21334;SDS011;10826;52.536;13.432;2022-07-23T13:45:58;4.15;;;2.90;;
21334;SDS011;10826;52.536;13.432;2022-07-23T13:48:25;7.47;;;3.50;;
21334;SDS011;10826;52.536;13.432;2022-07-23T13:50:51;5.18;;;2.60;;
21334;SDS011;10826;52.536;13.432;2022-07-23T13:53:21;8.20;;;3.47;;
21334;SDS011;10826;52.536;13.432;2022-07-23T13:55:49;6.88;;;2.90;;
21334;SDS011;10826;52.536;13.432;2022-07-23T13:58:18;3.63;;;2.75;;
21334;SDS011;10826;52.536;13.432;2022-07-23T14:00:46;6.47;;;2.95;;
21334;SDS011;10826;52.536;13.432;2022-07-23T14:03:15;2.70;;;2.50;;
21334;SDS011;10826;52.536;13.432;2022-07-23T14:05:42;5.25;;;2.75;;
21334;SDS011;10826;52.536;13.432;2022-07-23T14:08:09;2.65;;;2.45;;
21334;SDS011;10826;52.536;13.432;2022-07-23T14:10:35;3.13;;;2.63;;
21334;SDS011;10826;52.536;13.432;2022-07-23T14:13:02;5.25;;;2.83;;
21334;SDS011;10826;52.536;13.432;2022-07-23T14:15:29;5.13;;;2.55;;
21334;SDS011;10826;52.536;13.432;2022-07-23T14:17:56;2.67;;;2.47;;
21334;SDS011;10826;52.536;13.432;2022-07-23T14:20:22;2.80;;;2.45;;
21334;SDS011;10826;52.536;13.432;2022-07-23T14:22:49;3.25;;;2.47;;
21334;SDS011;10826;52.536;13.432;2022-07-23T14:25:16;3.17;;;2.30;;
21334;SDS011;10826;52.536;13.432;2022-07-23T14:27:42;3.88;;;2.63;;
21334;SDS011;10826;52.536;13.432;2022-07-23T14:30:10;3.20;;;3.00;;
21334;SDS011;10826;52.536;13.432;2022-07-23T14:32:38;3.67;;;3.40;;
21334;SDS011;10826;52.536;13.432;2022-07-23T14:35:04;2.38;;;2.17;;
21334;SDS011;10826;52.536;13.432;2022-07-23T14:37:31;5.95;;;2.30;;
21334;SDS011;10826;52.536;13.432;2022-07-23T14:39:57;2.58;;;2.10;;
21334;SDS011;10826;52.536;13.432;2022-07-23T14:42:24;2.45;;;2.15;;
21334;SDS011;10826;52.536;13.432;2022-07-23T14:44:50;5.18;;;2.60;;
21334;SDS011;10826;52.536;13.432;2022-07-23T14:47:16;2.78;;;1.90;;
21334;SDS011;10826;52.536;13.432;2022-07-23T14:49:43;4.80;;;2.30;;
21334;SDS011;10826;52.536;13.432;2022-07-23T14:52:09;4.90;;;2.22;;
21334;SDS011;10826;52.536;13.432;2022-07-23T14:54:34;4.03;;;2.25;;
21334;SDS011;10826;52.536;13.432;2022-07-23T14:57:01;3.33;;;2.28;;
21334;SDS011;10826;52.536;13.432;2022-07-23T14:59:28;2.25;;;1.90;;
21334;SDS011;10826;52.536;13.432;2022-07-23T15:01:56;2.65;;;2.25;;
21334;SDS011;10826;52.536;13.432;2022-07-23T15:04:23;2.97;;;2.15;;
21334;SDS011;10826;52.536;13.432;2022-07-23T15:06:50;2.65;;;1.88;;
21334;SDS011;10826;52.536;13.432;2022-07-23T15:09:17;3.03;;;2.05;;
21334;SDS011;10826;52.536;13.432;2022-07-23T15:11:43;1.95;;;1.77;;
21334;SDS011;10826;52.536;13.432;2022-07-23T15:14:09;1.90;;;1.80;;
21334;SDS011;10826;52.536;13.432;2022-07-23T15:16:35;1.92;;;1.80;;